createdAt,value
2023-02-01T00:00:11.561Z,5.55
2023-02-01T00:02:14.605Z,6.35
2023-02-01T00:04:17.550Z,6.35
2023-02-01T00:06:21.826Z,5.00
2023-02-01T00:08:24.782Z,7.18
2023-02-01T00:10:27.799Z,7.53
2023-02-01T00:12:30.737Z,7.55
2023-02-01T00:14:39.143Z,8.70
2023-02-01T00:16:42.234Z,6.05
2023-02-01T00:18:45.290Z,9.23
2023-02-01T00:20:48.323Z,6.10
2023-02-01T00:22:52.649Z,5.25
2023-02-01T00:24:55.577Z,6.80
2023-02-01T00:26:58.592Z,6.20
2023-02-01T00:29:02.119Z,7.00
2023-02-01T00:31:06.652Z,5.78
2023-02-01T00:33:09.796Z,6.55
2023-02-01T00:35:12.745Z,5.75
2023-02-01T00:37:15.681Z,5.70
2023-02-01T00:39:19.975Z,6.13
2023-02-01T00:41:23.736Z,6.95
2023-02-01T00:43:26.726Z,5.75
2023-02-01T00:45:29.689Z,5.60
2023-02-01T00:47:32.780Z,5.07
2023-02-01T00:49:35.751Z,5.85
2023-02-01T00:51:38.746Z,4.70
2023-02-01T00:53:42.173Z,6.75
2023-02-01T00:55:48.398Z,4.78
2023-02-01T00:57:51.286Z,4.82
2023-02-01T00:59:54.350Z,4.47
2023-02-01T01:01:57.434Z,6.00
2023-02-01T01:04:01.336Z,4.55
2023-02-01T01:06:06.473Z,6.85
2023-02-01T01:08:09.396Z,5.47
2023-02-01T01:10:13.023Z,5.78
2023-02-01T01:12:17.255Z,5.30
2023-02-01T01:14:21.895Z,5.18
2023-02-01T01:16:26.134Z,4.00
2023-02-01T01:18:29.678Z,4.18
2023-02-01T01:20:32.645Z,4.75
2023-02-01T01:22:35.572Z,4.53
2023-02-01T01:24:38.654Z,3.42
2023-02-01T01:26:41.663Z,4.00
2023-02-01T01:28:46.575Z,6.35
2023-02-01T01:30:49.966Z,3.70
2023-02-01T01:32:53.938Z,4.45
2023-02-01T01:34:56.961Z,5.63
2023-02-01T01:37:00.119Z,7.03
2023-02-01T01:39:03.269Z,5.28
2023-02-01T01:41:06.612Z,6.20
2023-02-01T01:43:15.640Z,4.68
2023-02-01T01:45:26.607Z,6.10
2023-02-01T01:47:33.177Z,6.43
2023-02-01T01:49:36.200Z,7.57
2023-02-01T01:51:42.739Z,4.88
2023-02-01T01:53:47.539Z,4.78
2023-02-01T01:55:51.839Z,4.63
2023-02-01T01:57:58.894Z,5.70
2023-02-01T02:00:06.051Z,3.50
2023-02-01T02:02:18.326Z,4.20
2023-02-01T02:04:22.797Z,4.20
2023-02-01T02:06:34.986Z,4.20
2023-02-01T02:08:40.890Z,3.75
2023-02-01T02:11:03.703Z,3.90
2023-02-01T02:13:06.733Z,3.40
2023-02-01T02:15:11.652Z,4.72
2023-02-01T02:17:33.094Z,3.85
2023-02-01T02:20:11.420Z,3.70
2023-02-01T02:22:37.935Z,3.92
2023-02-01T02:24:55.059Z,4.00
2023-02-01T02:27:27.630Z,2.50
2023-02-01T02:30:06.702Z,2.97
2023-02-01T02:32:30.958Z,3.33
2023-02-01T02:34:36.809Z,2.70
2023-02-01T02:36:45.942Z,2.53
2023-02-01T02:38:52.564Z,2.13
2023-02-01T02:41:07.154Z,2.55
2023-02-01T02:43:30.796Z,2.88
2023-02-01T02:45:58.077Z,3.00
2023-02-01T02:48:08.665Z,3.08
2023-02-01T02:50:35.415Z,2.83
2023-02-01T02:53:01.640Z,3.00
2023-02-01T02:55:06.647Z,3.72
2023-02-01T02:57:29.789Z,2.78
2023-02-01T02:59:53.465Z,2.67
2023-02-01T03:02:14.591Z,3.10
2023-02-01T03:04:18.701Z,3.63
2023-02-01T03:06:26.550Z,2.30
2023-02-01T03:08:30.275Z,2.33
2023-02-01T03:10:39.971Z,3.83
2023-02-01T03:12:58.167Z,2.80
2023-02-01T03:15:06.673Z,3.22
2023-02-01T03:17:14.356Z,3.38
2023-02-01T03:19:21.079Z,3.55
2023-02-01T03:21:28.647Z,3.38
2023-02-01T03:23:34.847Z,4.25
2023-02-01T03:25:38.371Z,3.88
2023-02-01T03:27:44.483Z,3.65
2023-02-01T03:29:51.287Z,4.65
2023-02-01T03:31:54.506Z,3.13
2023-02-01T03:33:57.788Z,3.22
2023-02-01T03:36:10.952Z,4.28
2023-02-01T03:38:21.059Z,3.67
2023-02-01T03:40:24.885Z,2.67
2023-02-01T03:42:32.737Z,4.38
2023-02-01T03:44:38.034Z,2.58
2023-02-01T03:46:43.642Z,3.17
2023-02-01T03:48:50.886Z,4.95
2023-02-01T03:50:55.982Z,3.20
2023-02-01T03:53:01.785Z,2.67
2023-02-01T03:55:07.833Z,2.55
2023-02-01T03:57:14.780Z,3.83
2023-02-01T03:59:17.707Z,4.07
2023-02-01T04:01:20.683Z,3.70
2023-02-01T04:03:24.397Z,6.20
2023-02-01T04:05:27.592Z,3.10
2023-02-01T04:07:38.108Z,3.15
2023-02-01T04:09:41.471Z,3.30
2023-02-01T04:11:45.950Z,3.75
2023-02-01T04:13:48.971Z,3.05
2023-02-01T04:15:52.004Z,2.75
2023-02-01T04:17:55.468Z,3.65
2023-02-01T04:19:58.417Z,4.32
2023-02-01T04:22:01.272Z,3.72
2023-02-01T04:24:04.343Z,3.80
2023-02-01T04:26:07.767Z,3.65
2023-02-01T04:28:12.061Z,2.60
2023-02-01T04:30:15.656Z,2.95
2023-02-01T04:32:18.732Z,2.30
2023-02-01T04:34:23.469Z,2.75
2023-02-01T04:36:26.580Z,3.25
2023-02-01T04:38:30.366Z,2.28
2023-02-01T04:40:33.445Z,3.33
2023-02-01T04:42:36.343Z,2.38
2023-02-01T04:44:42.854Z,3.95
2023-02-01T04:46:46.820Z,2.58
2023-02-01T04:48:49.781Z,2.75
2023-02-01T04:50:52.767Z,2.78
2023-02-01T04:52:55.665Z,2.25
2023-02-01T04:55:01.025Z,2.60
2023-02-01T04:57:03.984Z,2.72
2023-02-01T04:59:07.172Z,2.80
2023-02-01T05:01:11.516Z,3.58
2023-02-01T05:03:14.446Z,3.38
2023-02-01T05:05:17.569Z,2.90
2023-02-01T05:07:20.453Z,5.05
2023-02-01T05:09:28.567Z,3.03
2023-02-01T05:11:49.316Z,3.30
2023-02-01T05:13:54.899Z,2.75
2023-02-01T05:15:57.910Z,2.95
2023-02-01T05:18:02.372Z,3.00
2023-02-01T05:20:06.405Z,2.42
2023-02-01T05:22:09.322Z,2.42
2023-02-01T05:24:14.673Z,3.15
2023-02-01T05:26:17.902Z,2.92
2023-02-01T05:28:20.925Z,3.30
2023-02-01T05:30:24.209Z,2.80
2023-02-01T05:32:28.004Z,5.82
2023-02-01T05:34:32.653Z,3.55
2023-02-01T05:36:35.933Z,3.25
2023-02-01T05:38:38.873Z,3.17
2023-02-01T05:40:41.900Z,3.03
2023-02-01T05:42:44.914Z,2.75
2023-02-01T05:44:47.946Z,2.90
2023-02-01T05:46:53.201Z,6.07
2023-02-01T05:48:56.129Z,4.38
2023-02-01T05:51:00.456Z,3.92
2023-02-01T05:53:03.449Z,3.72
2023-02-01T05:55:07.128Z,3.83
2023-02-01T05:57:10.137Z,3.83
2023-02-01T05:59:13.219Z,2.72
2023-02-01T06:01:16.228Z,2.72
2023-02-01T06:03:19.631Z,3.70
2023-02-01T06:05:22.595Z,2.85
2023-02-01T06:07:29.385Z,3.33
2023-02-01T06:09:32.631Z,5.63
2023-02-01T06:11:35.602Z,5.15
2023-02-01T06:13:39.599Z,3.58
2023-02-01T06:15:45.109Z,6.40
2023-02-01T06:17:48.446Z,5.07
2023-02-01T06:19:51.390Z,2.40
2023-02-01T06:21:54.313Z,3.90
2023-02-01T06:23:59.312Z,3.50
2023-02-01T06:26:04.180Z,3.88
2023-02-01T06:28:09.214Z,2.72
2023-02-01T06:30:14.591Z,4.05
2023-02-01T06:32:18.377Z,3.47
2023-02-01T06:34:23.377Z,3.33
2023-02-01T06:36:26.561Z,3.50
2023-02-01T06:38:29.854Z,3.72
2023-02-01T06:40:34.188Z,3.17
2023-02-01T06:42:37.293Z,5.78
2023-02-01T06:44:40.249Z,3.05
2023-02-01T06:46:43.239Z,5.20
2023-02-01T06:48:47.035Z,3.60
2023-02-01T06:50:50.049Z,4.32
2023-02-01T06:52:53.060Z,5.07
2023-02-01T06:54:56.745Z,5.03
2023-02-01T06:57:01.129Z,6.65
2023-02-01T06:59:05.889Z,7.80
2023-02-01T07:01:10.323Z,7.60
2023-02-01T07:03:13.435Z,5.15
2023-02-01T07:05:16.530Z,5.55
2023-02-01T07:07:20.823Z,10.13
2023-02-01T07:09:23.843Z,6.00
2023-02-01T07:11:28.292Z,8.02
2023-02-01T07:13:32.825Z,5.75
2023-02-01T07:15:35.847Z,8.20
2023-02-01T07:17:38.829Z,7.30
2023-02-01T07:19:41.777Z,8.27
2023-02-01T07:21:44.730Z,6.10
2023-02-01T07:23:47.843Z,8.25
2023-02-01T07:25:50.988Z,6.13
2023-02-01T07:27:53.994Z,7.00
2023-02-01T07:30:02.907Z,7.20
2023-02-01T07:32:06.256Z,9.50
2023-02-01T07:34:09.185Z,8.73
2023-02-01T07:36:14.482Z,7.85
2023-02-01T07:38:18.231Z,8.07
2023-02-01T07:40:25.944Z,14.00
2023-02-01T07:42:28.915Z,8.40
2023-02-01T07:44:31.991Z,6.25
2023-02-01T07:46:37.179Z,8.45
2023-02-01T07:48:40.660Z,8.20
2023-02-01T07:50:43.772Z,10.50
2023-02-01T07:52:46.782Z,10.93
2023-02-01T07:54:49.879Z,6.53
2023-02-01T07:56:52.824Z,7.65
2023-02-01T07:58:56.989Z,6.97
2023-02-01T08:01:17.627Z,9.93
2023-02-01T08:03:21.994Z,8.40
2023-02-01T08:05:24.941Z,8.45
2023-02-01T08:07:27.975Z,6.95
2023-02-01T08:09:32.140Z,7.95
2023-02-01T08:11:35.171Z,11.30
2023-02-01T08:13:38.291Z,11.18
2023-02-01T08:15:41.454Z,8.15
2023-02-01T08:17:48.981Z,8.23
2023-02-01T08:19:53.314Z,9.77
2023-02-01T08:21:56.265Z,7.93
2023-02-01T08:23:59.358Z,10.27
2023-02-01T08:26:13.535Z,11.85
2023-02-01T08:28:16.886Z,10.38
2023-02-01T08:30:19.952Z,11.45
2023-02-01T08:32:22.977Z,8.88
2023-02-01T08:34:26.282Z,6.95
2023-02-01T08:36:32.047Z,10.88
2023-02-01T08:38:37.128Z,10.80
2023-02-01T08:40:42.385Z,11.70
2023-02-01T08:42:54.946Z,11.98
2023-02-01T08:44:58.299Z,8.05
2023-02-01T08:47:01.551Z,10.75
2023-02-01T08:49:04.825Z,11.90
2023-02-01T08:51:10.067Z,9.15
2023-02-01T08:53:15.041Z,12.52
2023-02-01T08:55:18.404Z,15.63
2023-02-01T08:57:21.439Z,11.77
2023-02-01T08:59:26.681Z,8.82
2023-02-01T09:01:30.636Z,9.18
2023-02-01T09:03:34.159Z,9.20
2023-02-01T09:05:48.667Z,8.43
2023-02-01T09:07:52.608Z,8.60
2023-02-01T09:09:57.393Z,8.48
2023-02-01T09:12:00.422Z,10.30
2023-02-01T09:14:03.371Z,11.95
2023-02-01T09:16:06.963Z,13.68
2023-02-01T09:18:10.009Z,9.25
2023-02-01T09:20:13.861Z,10.82
2023-02-01T09:22:17.097Z,9.43
2023-02-01T09:24:20.095Z,9.60
2023-02-01T09:26:31.497Z,9.93
2023-02-01T09:28:35.396Z,8.02
2023-02-01T09:30:39.054Z,13.05
2023-02-01T09:32:42.117Z,10.20
2023-02-01T09:34:45.087Z,7.90
2023-02-01T09:36:48.060Z,7.03
2023-02-01T09:38:53.189Z,12.98
2023-02-01T09:40:57.344Z,5.13
2023-02-01T09:43:13.835Z,7.97
2023-02-01T09:45:22.503Z,8.68
2023-02-01T09:47:27.088Z,9.10
2023-02-01T09:49:32.725Z,6.28
2023-02-01T09:51:39.750Z,7.43
2023-02-01T09:53:44.579Z,6.78
2023-02-01T09:55:50.380Z,9.32
2023-02-01T09:57:57.042Z,9.40
2023-02-01T10:00:05.347Z,11.63
2023-02-01T10:02:18.702Z,10.50
2023-02-01T10:04:23.028Z,9.10
2023-02-01T10:06:38.498Z,9.43
2023-02-01T10:08:56.459Z,9.23
2023-02-01T10:11:04.714Z,11.73
2023-02-01T10:13:20.150Z,10.82
2023-02-01T10:15:47.346Z,17.80
2023-02-01T10:17:59.456Z,14.80
2023-02-01T10:20:10.001Z,14.73
2023-02-01T10:22:14.865Z,16.92
2023-02-01T10:24:28.024Z,13.18
2023-02-01T10:26:35.699Z,16.67
2023-02-01T10:28:40.227Z,9.75
2023-02-01T10:30:47.323Z,7.43
2023-02-01T10:32:53.784Z,8.95
2023-02-01T10:35:00.023Z,9.25
2023-02-01T10:37:09.655Z,12.63
2023-02-01T10:39:14.591Z,18.38
2023-02-01T10:41:20.131Z,9.90
2023-02-01T10:43:23.678Z,11.55
2023-02-01T10:45:28.792Z,10.60
2023-02-01T10:47:33.269Z,12.18
2023-02-01T10:49:42.625Z,12.73
2023-02-01T10:51:48.317Z,13.38
2023-02-01T10:53:54.265Z,8.90
2023-02-01T10:55:57.628Z,8.75
2023-02-01T10:58:02.460Z,7.75
2023-02-01T11:00:09.275Z,10.20
2023-02-01T11:02:21.563Z,11.25
2023-02-01T11:04:27.370Z,6.03
2023-02-01T11:06:32.895Z,15.55
2023-02-01T11:08:35.921Z,11.93
2023-02-01T11:10:41.514Z,9.25
2023-02-01T11:12:55.509Z,18.65
2023-02-01T11:15:16.169Z,13.00
2023-02-01T11:17:27.175Z,8.98
2023-02-01T11:19:32.016Z,15.27
2023-02-01T11:21:35.497Z,12.85
2023-02-01T11:23:43.228Z,14.18
2023-02-01T11:25:54.423Z,10.23
2023-02-01T11:27:58.101Z,7.90
2023-02-01T11:30:03.171Z,13.52
2023-02-01T11:32:07.172Z,13.35
2023-02-01T11:34:14.674Z,19.35
2023-02-01T11:36:20.592Z,10.70
2023-02-01T11:38:27.335Z,13.57
2023-02-01T11:40:32.293Z,11.93
2023-02-01T11:42:35.300Z,11.07
2023-02-01T11:44:39.909Z,8.85
2023-02-01T11:46:42.994Z,15.43
2023-02-01T11:48:46.178Z,13.82
2023-02-01T11:50:55.017Z,10.32
2023-02-01T11:53:16.523Z,13.70
2023-02-01T11:55:38.863Z,8.10
2023-02-01T11:57:53.931Z,10.20
2023-02-01T12:00:07.023Z,14.18
2023-02-01T12:02:28.943Z,17.30
2023-02-01T12:05:06.725Z,9.05
2023-02-01T12:07:16.030Z,10.82
2023-02-01T12:09:32.091Z,9.48
2023-02-01T12:11:45.955Z,9.65
2023-02-01T12:14:03.525Z,9.55
2023-02-01T12:16:17.969Z,14.10
2023-02-01T12:18:49.931Z,20.95
2023-02-01T12:21:03.852Z,10.05
2023-02-01T12:23:19.953Z,14.48
2023-02-01T12:25:33.290Z,14.98
2023-02-01T12:27:54.097Z,19.65
2023-02-01T12:30:12.933Z,14.07
2023-02-01T12:32:26.809Z,9.38
2023-02-01T12:35:04.158Z,10.00
2023-02-01T12:37:16.965Z,9.35
2023-02-01T12:39:25.183Z,9.18
2023-02-01T12:41:47.744Z,10.02
2023-02-01T12:43:53.903Z,8.30
2023-02-01T12:46:00.529Z,10.60
2023-02-01T12:48:24.151Z,11.55
2023-02-01T12:50:29.857Z,34.30
2023-02-01T12:52:38.284Z,13.40
2023-02-01T12:54:46.387Z,12.35
2023-02-01T12:56:56.172Z,9.98
2023-02-01T12:59:01.987Z,9.05
2023-02-01T13:01:10.127Z,10.15
2023-02-01T13:03:19.640Z,7.75
2023-02-01T13:05:25.067Z,9.50
2023-02-01T13:07:31.511Z,10.27
2023-02-01T13:09:40.367Z,10.18
2023-02-01T13:11:46.109Z,11.30
2023-02-01T13:13:57.213Z,7.03
2023-02-01T13:16:08.274Z,11.98
2023-02-01T13:18:16.510Z,6.20
2023-02-01T13:20:25.140Z,8.25
2023-02-01T13:22:32.646Z,11.82
2023-02-01T13:24:39.265Z,10.90
2023-02-01T13:26:42.413Z,11.23
2023-02-01T13:28:49.354Z,12.02
2023-02-01T13:31:19.589Z,7.35
2023-02-01T13:33:54.062Z,9.73
2023-02-01T13:36:17.019Z,9.15
2023-02-01T13:39:05.223Z,12.48
2023-02-01T13:41:20.136Z,8.23
2023-02-01T13:43:27.176Z,12.73
2023-02-01T13:45:32.691Z,8.57
2023-02-01T13:47:41.727Z,8.48
2023-02-01T13:49:44.819Z,12.60
2023-02-01T13:51:50.766Z,9.38
2023-02-01T13:53:54.824Z,5.07
2023-02-01T13:56:00.654Z,15.07
2023-02-01T13:58:18.235Z,12.15
2023-02-01T14:00:31.456Z,13.05
2023-02-01T14:03:23.080Z,10.65
2023-02-01T14:05:59.558Z,8.27
2023-02-01T14:08:13.676Z,7.65
2023-02-01T14:10:51.646Z,13.48
2023-02-01T14:13:06.183Z,13.18
2023-02-01T14:15:23.849Z,10.85
2023-02-01T14:17:36.152Z,16.45
2023-02-01T14:19:39.696Z,12.45
2023-02-01T14:21:52.694Z,11.88
2023-02-01T14:24:01.316Z,11.80
2023-02-01T14:26:14.049Z,10.75
2023-02-01T14:28:27.085Z,10.30
2023-02-01T14:30:30.154Z,11.88
2023-02-01T14:32:35.839Z,9.02
2023-02-01T14:34:45.843Z,9.05
2023-02-01T14:36:53.337Z,10.25
2023-02-01T14:38:56.423Z,10.15
2023-02-01T14:41:13.504Z,8.48
2023-02-01T14:43:23.677Z,8.57
2023-02-01T14:45:51.968Z,8.65
2023-02-01T14:47:56.143Z,5.22
2023-02-01T14:50:05.041Z,9.30
2023-02-01T14:52:15.447Z,8.55
2023-02-01T14:54:20.807Z,13.00
2023-02-01T14:56:24.136Z,10.02
2023-02-01T14:58:37.370Z,9.85
2023-02-01T15:00:49.718Z,7.05
2023-02-01T15:02:53.861Z,10.27
2023-02-01T15:04:58.165Z,15.20
2023-02-01T15:07:07.999Z,9.20
2023-02-01T15:09:16.471Z,10.23
2023-02-01T15:11:19.943Z,13.18
2023-02-01T15:13:25.168Z,9.38
2023-02-01T15:15:28.361Z,9.30
2023-02-01T15:17:34.693Z,10.63
2023-02-01T15:19:38.143Z,9.75
2023-02-01T15:21:49.294Z,13.48
2023-02-01T15:23:52.283Z,9.68
2023-02-01T15:25:57.105Z,5.90
2023-02-01T15:28:00.399Z,12.05
2023-02-01T15:30:10.332Z,8.90
2023-02-01T15:32:32.348Z,13.80
2023-02-01T15:34:49.375Z,8.93
2023-02-01T15:37:07.643Z,8.05
2023-02-01T15:39:26.774Z,9.45
2023-02-01T15:41:32.588Z,9.50
2023-02-01T15:43:39.085Z,7.85
2023-02-01T15:45:42.297Z,13.48
2023-02-01T15:47:49.428Z,11.70
2023-02-01T15:49:54.844Z,7.70
2023-02-01T15:51:59.386Z,8.15
2023-02-01T15:54:04.872Z,12.85
2023-02-01T15:56:08.475Z,10.90
2023-02-01T15:58:25.829Z,8.82
2023-02-01T16:00:30.958Z,9.70
2023-02-01T16:02:38.463Z,8.50
2023-02-01T16:04:51.820Z,15.40
2023-02-01T16:06:55.977Z,12.25
2023-02-01T16:09:04.703Z,9.80
2023-02-01T16:11:24.148Z,10.45
2023-02-01T16:13:28.599Z,9.43
2023-02-01T16:15:33.083Z,12.93
2023-02-01T16:17:36.056Z,13.15
2023-02-01T16:19:39.135Z,12.45
2023-02-01T16:21:42.026Z,7.90
2023-02-01T16:23:50.693Z,8.07
2023-02-01T16:25:54.192Z,14.23
2023-02-01T16:27:57.545Z,15.25
2023-02-01T16:30:02.542Z,10.88
2023-02-01T16:32:06.194Z,12.32
2023-02-01T16:34:15.953Z,13.50
2023-02-01T16:36:19.571Z,13.95
2023-02-01T16:38:24.666Z,15.05
2023-02-01T16:40:27.794Z,10.13
2023-02-01T16:42:31.919Z,11.68
2023-02-01T16:44:35.213Z,10.60
2023-02-01T16:46:42.888Z,7.57
2023-02-01T16:48:49.538Z,9.98
2023-02-01T16:50:55.420Z,9.70
2023-02-01T16:52:58.545Z,13.60
2023-02-01T16:55:02.124Z,9.60
2023-02-01T16:57:05.423Z,9.98
2023-02-01T16:59:11.144Z,9.13
2023-02-01T17:01:16.046Z,15.18
2023-02-01T17:03:22.105Z,10.25
2023-02-01T17:05:25.777Z,12.65
2023-02-01T17:07:29.159Z,11.00
2023-02-01T17:09:32.192Z,11.95
2023-02-01T17:11:35.843Z,11.20
2023-02-01T17:13:38.872Z,10.98
2023-02-01T17:15:42.105Z,9.63
2023-02-01T17:17:45.762Z,13.40
2023-02-01T17:19:54.111Z,15.52
2023-02-01T17:21:59.621Z,17.63
2023-02-01T17:24:03.018Z,13.60
2023-02-01T17:26:06.262Z,8.73
2023-02-01T17:28:09.727Z,10.55
2023-02-01T17:30:13.708Z,9.93
2023-02-01T17:32:20.010Z,13.30
2023-02-01T17:34:23.129Z,9.32
2023-02-01T17:36:28.018Z,8.55
2023-02-01T17:38:31.398Z,12.25
2023-02-01T17:40:35.112Z,11.45
2023-02-01T17:42:40.827Z,8.63
2023-02-01T17:44:43.824Z,8.55
2023-02-01T17:46:46.958Z,8.35
2023-02-01T17:48:49.941Z,6.07
2023-02-01T17:50:58.538Z,13.57
2023-02-01T17:53:05.967Z,7.15
2023-02-01T17:55:17.899Z,10.98
2023-02-01T17:57:21.089Z,12.10
2023-02-01T17:59:24.119Z,9.15
2023-02-01T18:01:27.703Z,11.98
2023-02-01T18:03:33.054Z,9.98
2023-02-01T18:05:41.218Z,13.95
2023-02-01T18:07:44.293Z,8.32
2023-02-01T18:09:48.732Z,14.18
2023-02-01T18:11:55.598Z,11.68
2023-02-01T18:13:58.660Z,8.52
2023-02-01T18:16:02.155Z,9.82
2023-02-01T18:18:05.388Z,8.00
2023-02-01T18:20:10.185Z,11.25
2023-02-01T18:22:16.867Z,8.75
2023-02-01T18:24:20.000Z,18.05
2023-02-01T18:26:24.901Z,11.65
2023-02-01T18:28:28.415Z,13.25
2023-02-01T18:30:33.211Z,8.98
2023-02-01T18:32:36.845Z,11.60
2023-02-01T18:34:41.068Z,9.70
2023-02-01T18:36:44.199Z,9.15
2023-02-01T18:38:47.746Z,7.88
2023-02-01T18:40:52.612Z,7.65
2023-02-01T18:42:58.268Z,11.50
2023-02-01T18:45:01.451Z,8.20
2023-02-01T18:47:04.667Z,11.57
2023-02-01T18:49:08.665Z,11.25
2023-02-01T18:51:13.284Z,6.50
2023-02-01T18:53:19.983Z,11.52
2023-02-01T18:55:23.810Z,10.50
2023-02-01T18:57:27.313Z,8.00
2023-02-01T18:59:32.688Z,6.30
2023-02-01T19:01:36.149Z,9.10
2023-02-01T19:03:45.029Z,9.27
2023-02-01T19:05:56.648Z,9.15
2023-02-01T19:07:59.798Z,10.48
2023-02-01T19:10:03.059Z,5.70
2023-02-01T19:12:06.525Z,8.20
2023-02-01T19:14:09.642Z,6.32
2023-02-01T19:16:14.791Z,16.60
2023-02-01T19:18:20.215Z,11.35
2023-02-01T19:20:25.267Z,8.82
2023-02-01T19:22:28.554Z,8.63
2023-02-01T19:24:31.710Z,12.63
2023-02-01T19:26:34.986Z,12.32
2023-02-01T19:28:38.292Z,12.30
2023-02-01T19:30:41.590Z,11.30
2023-02-01T19:32:46.726Z,11.73
2023-02-01T19:34:50.145Z,7.57
2023-02-01T19:36:55.158Z,9.23
2023-02-01T19:38:58.296Z,10.55
2023-02-01T19:41:01.648Z,13.55
2023-02-01T19:43:04.986Z,12.63
2023-02-01T19:45:09.645Z,8.63
2023-02-01T19:47:12.855Z,9.80
2023-02-01T19:49:17.531Z,9.50
2023-02-01T19:51:21.120Z,8.25
2023-02-01T19:53:27.666Z,8.60
2023-02-01T19:55:31.159Z,14.45
2023-02-01T19:57:36.101Z,10.50
2023-02-01T19:59:39.322Z,8.57
2023-02-01T20:01:44.288Z,11.60
2023-02-01T20:03:47.869Z,9.85
2023-02-01T20:05:53.633Z,9.32
2023-02-01T20:07:56.716Z,10.70
2023-02-01T20:10:00.129Z,6.93
2023-02-01T20:12:03.511Z,10.02
2023-02-01T20:14:07.456Z,9.52
2023-02-01T20:16:11.476Z,9.68
2023-02-01T20:18:14.740Z,12.88
2023-02-01T20:20:18.312Z,9.50
2023-02-01T20:22:23.115Z,10.75
2023-02-01T20:24:26.381Z,12.07
2023-02-01T20:26:30.802Z,9.52
2023-02-01T20:28:34.730Z,12.50
2023-02-01T20:30:37.870Z,10.98
2023-02-01T20:32:41.072Z,7.13
2023-02-01T20:34:44.131Z,11.95
2023-02-01T20:36:47.205Z,10.27
2023-02-01T20:38:51.788Z,9.13
2023-02-01T20:40:54.899Z,6.63
2023-02-01T20:42:58.800Z,8.45
2023-02-01T20:45:04.000Z,9.60
2023-02-01T20:47:07.109Z,10.20
2023-02-01T20:49:12.017Z,11.32
2023-02-01T20:51:16.631Z,8.68
2023-02-01T20:53:26.621Z,10.60
2023-02-01T20:55:32.437Z,13.90
2023-02-01T20:57:35.491Z,14.77
2023-02-01T20:59:39.363Z,9.20
2023-02-01T21:01:53.114Z,8.40
2023-02-01T21:03:56.677Z,8.20
2023-02-01T21:06:00.988Z,8.02
2023-02-01T21:08:04.225Z,13.82
2023-02-01T21:10:08.560Z,7.60
2023-02-01T21:12:13.241Z,10.73
2023-02-01T21:14:16.292Z,11.95
2023-02-01T21:16:21.038Z,9.63
2023-02-01T21:18:24.304Z,16.85
2023-02-01T21:20:27.977Z,9.10
2023-02-01T21:22:31.123Z,10.65
2023-02-01T21:24:34.120Z,9.57
2023-02-01T21:26:41.840Z,15.82
2023-02-01T21:28:46.740Z,10.63
2023-02-01T21:30:49.758Z,13.05
2023-02-01T21:32:52.879Z,7.65
2023-02-01T21:34:56.122Z,12.68
2023-02-01T21:36:59.287Z,10.57
2023-02-01T21:39:03.780Z,8.52
2023-02-01T21:41:24.193Z,8.15
2023-02-01T21:43:27.270Z,9.73
2023-02-01T21:45:32.047Z,9.00
2023-02-01T21:47:35.166Z,9.65
2023-02-01T21:49:40.369Z,10.70
2023-02-01T21:51:44.564Z,8.35
2023-02-01T21:53:47.564Z,11.13
2023-02-01T21:55:51.019Z,8.98
2023-02-01T21:57:54.047Z,10.40
2023-02-01T21:59:58.742Z,10.25
2023-02-01T22:02:04.847Z,11.70
2023-02-01T22:04:10.325Z,11.02
2023-02-01T22:06:24.991Z,12.65
2023-02-01T22:08:28.081Z,13.32
2023-02-01T22:10:31.140Z,10.27
2023-02-01T22:12:34.245Z,13.85
2023-02-01T22:14:37.387Z,11.57
2023-02-01T22:16:40.948Z,11.13
2023-02-01T22:18:45.685Z,8.20
2023-02-01T22:20:48.697Z,10.70
2023-02-01T22:22:52.401Z,9.45
2023-02-01T22:24:55.542Z,6.47
2023-02-01T22:27:13.834Z,9.70
2023-02-01T22:29:19.160Z,10.30
2023-02-01T22:31:22.697Z,10.40
2023-02-01T22:33:25.876Z,9.70
2023-02-01T22:35:30.375Z,10.10
2023-02-01T22:37:33.391Z,12.95
2023-02-01T22:39:36.432Z,13.93
2023-02-01T22:41:39.514Z,8.35
2023-02-01T22:43:42.714Z,9.20
2023-02-01T22:45:45.829Z,9.88
2023-02-01T22:47:49.963Z,10.73
2023-02-01T22:49:53.237Z,8.88
2023-02-01T22:51:59.219Z,10.07
2023-02-01T22:54:02.685Z,9.90
2023-02-01T22:56:07.636Z,6.75
2023-02-01T22:58:10.666Z,9.18
2023-02-01T23:00:14.846Z,10.57
2023-02-01T23:02:17.864Z,8.80
2023-02-01T23:04:21.439Z,11.38
2023-02-01T23:06:24.640Z,9.07
2023-02-01T23:08:29.186Z,8.77
2023-02-01T23:10:32.181Z,9.13
2023-02-01T23:12:35.238Z,6.47
2023-02-01T23:14:58.395Z,9.55
2023-02-01T23:17:01.751Z,8.95
2023-02-01T23:19:05.223Z,8.25
2023-02-01T23:21:10.523Z,9.35
2023-02-01T23:23:16.302Z,5.95
2023-02-01T23:25:20.792Z,9.77
2023-02-01T23:27:23.939Z,5.82
2023-02-01T23:29:28.291Z,8.90
2023-02-01T23:31:33.435Z,11.77
2023-02-01T23:33:37.225Z,6.22
2023-02-01T23:35:40.464Z,9.98
2023-02-01T23:37:43.782Z,6.82
2023-02-01T23:39:46.889Z,9.45
2023-02-01T23:41:51.337Z,9.98
2023-02-01T23:43:59.649Z,6.05
2023-02-01T23:46:02.866Z,6.57
2023-02-01T23:48:06.545Z,9.80
2023-02-01T23:50:10.416Z,9.50
2023-02-01T23:52:13.579Z,8.15
2023-02-01T23:54:16.663Z,9.30
2023-02-01T23:56:22.784Z,9.20
2023-02-01T23:58:27.287Z,8.30
